sensor_id;sensor_type;location;lat;lon;timestamp;P1;durP1;ratioP1;P2;durP2;ratioP2
77888;SDS011;67082;41.704;44.768;2023-12-28T00:00:42;9.13;;;4.50;;
77888;SDS011;67082;41.704;44.768;2023-12-28T00:03:30;9.15;;;4.25;;
77888;SDS011;67082;41.704;44.768;2023-12-28T00:05:58;7.50;;;4.32;;
77888;SDS011;67082;41.704;44.768;2023-12-28T00:08:26;8.38;;;4.03;;
77888;SDS011;67082;41.704;44.768;2023-12-28T00:10:55;7.72;;;4.10;;
77888;SDS011;67082;41.704;44.768;2023-12-28T00:13:25;9.80;;;5.03;;
77888;SDS011;67082;41.704;44.768;2023-12-28T00:15:53;8.18;;;4.35;;
77888;SDS011;67082;41.704;44.768;2023-12-28T00:18:22;7.18;;;3.88;;
77888;SDS011;67082;41.704;44.768;2023-12-28T00:20:52;7.80;;;4.05;;
77888;SDS011;67082;41.704;44.768;2023-12-28T00:23:23;9.38;;;4.05;;
77888;SDS011;67082;41.704;44.768;2023-12-28T00:25:53;10.23;;;4.30;;
77888;SDS011;67082;41.704;44.768;2023-12-28T00:28:21;7.95;;;4.60;;
77888;SDS011;67082;41.704;44.768;2023-12-28T00:30:50;6.90;;;4.38;;
77888;SDS011;67082;41.704;44.768;2023-12-28T00:33:18;7.20;;;4.30;;
77888;SDS011;67082;41.704;44.768;2023-12-28T00:35:46;8.07;;;4.20;;
77888;SDS011;67082;41.704;44.768;2023-12-28T00:38:15;8.30;;;4.68;;
77888;SDS011;67082;41.704;44.768;2023-12-28T00:40:43;8.57;;;4.30;;
77888;SDS011;67082;41.704;44.768;2023-12-28T00:43:12;8.18;;;4.65;;
77888;SDS011;67082;41.704;44.768;2023-12-28T00:45:40;10.68;;;4.93;;
77888;SDS011;67082;41.704;44.768;2023-12-28T00:48:10;9.05;;;4.97;;
77888;SDS011;67082;41.704;44.768;2023-12-28T00:50:39;7.05;;;4.30;;
77888;SDS011;67082;41.704;44.768;2023-12-28T00:53:08;9.95;;;4.80;;
77888;SDS011;67082;41.704;44.768;2023-12-28T00:55:35;9.10;;;4.70;;
77888;SDS011;67082;41.704;44.768;2023-12-28T00:58:04;9.07;;;4.25;;
77888;SDS011;67082;41.704;44.768;2023-12-28T01:00:32;8.25;;;4.55;;
77888;SDS011;67082;41.704;44.768;2023-12-28T01:03:01;8.15;;;4.97;;
77888;SDS011;67082;41.704;44.768;2023-12-28T01:05:30;10.18;;;4.82;;
77888;SDS011;67082;41.704;44.768;2023-12-28T01:07:58;11.60;;;4.70;;
77888;SDS011;67082;41.704;44.768;2023-12-28T01:10:27;12.02;;;4.80;;
77888;SDS011;67082;41.704;44.768;2023-12-28T01:12:55;9.90;;;4.78;;
77888;SDS011;67082;41.704;44.768;2023-12-28T01:15:24;7.13;;;4.45;;
77888;SDS011;67082;41.704;44.768;2023-12-28T01:17:53;8.10;;;4.47;;
77888;SDS011;67082;41.704;44.768;2023-12-28T01:20:22;9.35;;;4.20;;
77888;SDS011;67082;41.704;44.768;2023-12-28T01:22:50;7.05;;;4.20;;
77888;SDS011;67082;41.704;44.768;2023-12-28T01:25:18;8.05;;;4.72;;
77888;SDS011;67082;41.704;44.768;2023-12-28T01:27:46;8.57;;;4.78;;
77888;SDS011;67082;41.704;44.768;2023-12-28T01:30:15;10.18;;;4.35;;
77888;SDS011;67082;41.704;44.768;2023-12-28T01:32:44;10.98;;;4.85;;
77888;SDS011;67082;41.704;44.768;2023-12-28T01:35:12;9.60;;;4.10;;
77888;SDS011;67082;41.704;44.768;2023-12-28T01:37:40;8.32;;;4.05;;
77888;SDS011;67082;41.704;44.768;2023-12-28T01:40:08;10.07;;;3.70;;
77888;SDS011;67082;41.704;44.768;2023-12-28T01:42:37;6.78;;;4.00;;
77888;SDS011;67082;41.704;44.768;2023-12-28T01:45:06;8.88;;;3.53;;
77888;SDS011;67082;41.704;44.768;2023-12-28T01:47:36;6.50;;;3.75;;
77888;SDS011;67082;41.704;44.768;2023-12-28T01:50:05;5.57;;;3.53;;
77888;SDS011;67082;41.704;44.768;2023-12-28T01:52:34;6.03;;;3.03;;
77888;SDS011;67082;41.704;44.768;2023-12-28T01:55:03;6.90;;;3.10;;
77888;SDS011;67082;41.704;44.768;2023-12-28T01:57:32;5.13;;;2.80;;
77888;SDS011;67082;41.704;44.768;2023-12-28T02:00:01;9.07;;;3.38;;
77888;SDS011;67082;41.704;44.768;2023-12-28T02:02:39;4.97;;;2.78;;
77888;SDS011;67082;41.704;44.768;2023-12-28T02:05:12;5.85;;;2.90;;
77888;SDS011;67082;41.704;44.768;2023-12-28T02:07:42;4.55;;;2.33;;
77888;SDS011;67082;41.704;44.768;2023-12-28T02:10:10;3.85;;;2.45;;
77888;SDS011;67082;41.704;44.768;2023-12-28T02:12:39;4.43;;;2.42;;
77888;SDS011;67082;41.704;44.768;2023-12-28T02:15:07;3.45;;;2.13;;
77888;SDS011;67082;41.704;44.768;2023-12-28T02:17:39;3.33;;;1.98;;
77888;SDS011;67082;41.704;44.768;2023-12-28T02:20:34;3.80;;;2.20;;
77888;SDS011;67082;41.704;44.768;2023-12-28T02:23:04;4.97;;;2.10;;
77888;SDS011;67082;41.704;44.768;2023-12-28T02:25:36;7.60;;;2.40;;
77888;SDS011;67082;41.704;44.768;2023-12-28T02:28:04;5.15;;;2.33;;
77888;SDS011;67082;41.704;44.768;2023-12-28T02:30:33;4.00;;;2.08;;
77888;SDS011;67082;41.704;44.768;2023-12-28T02:33:07;5.10;;;2.55;;
77888;SDS011;67082;41.704;44.768;2023-12-28T02:38:13;3.20;;;2.20;;
77888;SDS011;67082;41.704;44.768;2023-12-28T02:40:43;3.63;;;2.40;;
77888;SDS011;67082;41.704;44.768;2023-12-28T02:43:12;4.03;;;2.30;;
77888;SDS011;67082;41.704;44.768;2023-12-28T02:45:43;4.32;;;2.08;;
77888;SDS011;67082;41.704;44.768;2023-12-28T02:48:11;5.15;;;2.00;;
77888;SDS011;67082;41.704;44.768;2023-12-28T02:50:40;4.38;;;2.42;;
77888;SDS011;67082;41.704;44.768;2023-12-28T02:53:08;4.80;;;2.10;;
77888;SDS011;67082;41.704;44.768;2023-12-28T02:55:37;2.70;;;1.85;;
77888;SDS011;67082;41.704;44.768;2023-12-28T02:58:05;3.63;;;2.10;;
77888;SDS011;67082;41.704;44.768;2023-12-28T03:00:33;3.00;;;2.10;;
77888;SDS011;67082;41.704;44.768;2023-12-28T03:03:02;3.67;;;2.17;;
77888;SDS011;67082;41.704;44.768;2023-12-28T03:05:31;6.70;;;2.50;;
77888;SDS011;67082;41.704;44.768;2023-12-28T03:08:00;4.07;;;2.42;;
77888;SDS011;67082;41.704;44.768;2023-12-28T03:10:28;4.55;;;2.65;;
77888;SDS011;67082;41.704;44.768;2023-12-28T03:12:57;5.22;;;2.08;;
77888;SDS011;67082;41.704;44.768;2023-12-28T03:15:25;3.83;;;2.10;;
77888;SDS011;67082;41.704;44.768;2023-12-28T03:17:54;3.55;;;2.30;;
77888;SDS011;67082;41.704;44.768;2023-12-28T03:20:22;4.25;;;2.28;;
77888;SDS011;67082;41.704;44.768;2023-12-28T03:22:51;2.92;;;1.77;;
77888;SDS011;67082;41.704;44.768;2023-12-28T03:25:20;2.42;;;1.55;;
77888;SDS011;67082;41.704;44.768;2023-12-28T03:27:48;3.33;;;1.85;;
77888;SDS011;67082;41.704;44.768;2023-12-28T03:30:17;4.05;;;1.80;;
77888;SDS011;67082;41.704;44.768;2023-12-28T03:32:46;3.70;;;1.50;;
77888;SDS011;67082;41.704;44.768;2023-12-28T03:35:16;3.83;;;2.25;;
77888;SDS011;67082;41.704;44.768;2023-12-28T03:37:44;3.50;;;1.88;;
77888;SDS011;67082;41.704;44.768;2023-12-28T03:40:12;2.58;;;1.60;;
77888;SDS011;67082;41.704;44.768;2023-12-28T03:42:44;5.45;;;2.03;;
77888;SDS011;67082;41.704;44.768;2023-12-28T03:45:12;3.05;;;1.60;;
77888;SDS011;67082;41.704;44.768;2023-12-28T03:47:41;4.78;;;2.08;;
77888;SDS011;67082;41.704;44.768;2023-12-28T03:50:09;2.53;;;1.33;;
77888;SDS011;67082;41.704;44.768;2023-12-28T03:52:37;2.58;;;1.10;;
77888;SDS011;67082;41.704;44.768;2023-12-28T03:55:05;2.92;;;1.30;;
77888;SDS011;67082;41.704;44.768;2023-12-28T03:57:35;2.30;;;1.17;;
77888;SDS011;67082;41.704;44.768;2023-12-28T04:00:03;1.45;;;0.90;;
77888;SDS011;67082;41.704;44.768;2023-12-28T04:02:39;1.97;;;1.17;;
77888;SDS011;67082;41.704;44.768;2023-12-28T04:05:07;4.53;;;1.30;;
77888;SDS011;67082;41.704;44.768;2023-12-28T04:07:35;2.47;;;1.08;;
77888;SDS011;67082;41.704;44.768;2023-12-28T04:10:03;3.17;;;1.50;;
77888;SDS011;67082;41.704;44.768;2023-12-28T04:12:32;6.03;;;1.60;;
77888;SDS011;67082;41.704;44.768;2023-12-28T04:15:01;3.45;;;1.60;;
77888;SDS011;67082;41.704;44.768;2023-12-28T04:17:31;2.35;;;1.55;;
77888;SDS011;67082;41.704;44.768;2023-12-28T04:20:00;5.93;;;1.85;;
77888;SDS011;67082;41.704;44.768;2023-12-28T04:22:30;3.88;;;1.60;;
77888;SDS011;67082;41.704;44.768;2023-12-28T04:25:00;3.40;;;1.65;;
77888;SDS011;67082;41.704;44.768;2023-12-28T04:27:29;2.97;;;1.52;;
77888;SDS011;67082;41.704;44.768;2023-12-28T04:29:58;7.05;;;1.65;;
77888;SDS011;67082;41.704;44.768;2023-12-28T04:32:26;7.35;;;1.60;;
77888;SDS011;67082;41.704;44.768;2023-12-28T04:34:54;10.50;;;1.73;;
77888;SDS011;67082;41.704;44.768;2023-12-28T04:37:24;4.65;;;1.50;;
77888;SDS011;67082;41.704;44.768;2023-12-28T04:39:54;3.25;;;1.13;;
77888;SDS011;67082;41.704;44.768;2023-12-28T04:42:22;2.47;;;1.20;;
77888;SDS011;67082;41.704;44.768;2023-12-28T04:44:51;3.95;;;1.20;;
77888;SDS011;67082;41.704;44.768;2023-12-28T04:47:19;6.28;;;1.40;;
77888;SDS011;67082;41.704;44.768;2023-12-28T04:49:47;6.90;;;1.50;;
77888;SDS011;67082;41.704;44.768;2023-12-28T04:52:16;6.45;;;1.30;;
77888;SDS011;67082;41.704;44.768;2023-12-28T04:54:47;9.50;;;1.50;;
77888;SDS011;67082;41.704;44.768;2023-12-28T04:57:16;7.90;;;1.42;;
77888;SDS011;67082;41.704;44.768;2023-12-28T04:59:44;7.70;;;1.30;;
77888;SDS011;67082;41.704;44.768;2023-12-28T05:02:13;6.90;;;1.73;;
77888;SDS011;67082;41.704;44.768;2023-12-28T05:04:40;3.97;;;1.20;;
77888;SDS011;67082;41.704;44.768;2023-12-28T05:07:09;2.30;;;1.20;;
77888;SDS011;67082;41.704;44.768;2023-12-28T05:09:37;3.72;;;1.10;;
77888;SDS011;67082;41.704;44.768;2023-12-28T05:12:06;3.15;;;1.42;;
77888;SDS011;67082;41.704;44.768;2023-12-28T05:14:34;3.85;;;1.30;;
77888;SDS011;67082;41.704;44.768;2023-12-28T05:17:02;6.40;;;1.20;;
77888;SDS011;67082;41.704;44.768;2023-12-28T05:19:31;3.42;;;1.40;;
77888;SDS011;67082;41.704;44.768;2023-12-28T05:21:59;3.72;;;1.40;;
77888;SDS011;67082;41.704;44.768;2023-12-28T05:24:31;6.32;;;1.30;;
77888;SDS011;67082;41.704;44.768;2023-12-28T05:27:00;3.03;;;1.10;;
77888;SDS011;67082;41.704;44.768;2023-12-28T05:29:28;4.72;;;1.45;;
77888;SDS011;67082;41.704;44.768;2023-12-28T05:31:56;3.42;;;1.08;;
77888;SDS011;67082;41.704;44.768;2023-12-28T05:34:25;5.07;;;1.42;;
77888;SDS011;67082;41.704;44.768;2023-12-28T05:36:53;10.30;;;1.40;;
77888;SDS011;67082;41.704;44.768;2023-12-28T05:39:21;6.68;;;1.20;;
77888;SDS011;67082;41.704;44.768;2023-12-28T05:41:50;3.50;;;1.00;;
77888;SDS011;67082;41.704;44.768;2023-12-28T05:44:18;3.85;;;0.95;;
77888;SDS011;67082;41.704;44.768;2023-12-28T05:46:46;2.05;;;1.10;;
77888;SDS011;67082;41.704;44.768;2023-12-28T05:49:14;3.92;;;1.05;;
77888;SDS011;67082;41.704;44.768;2023-12-28T05:51:43;2.22;;;1.00;;
77888;SDS011;67082;41.704;44.768;2023-12-28T05:54:11;2.40;;;1.00;;
77888;SDS011;67082;41.704;44.768;2023-12-28T05:56:40;4.03;;;1.27;;
77888;SDS011;67082;41.704;44.768;2023-12-28T05:59:08;2.30;;;1.20;;
77888;SDS011;67082;41.704;44.768;2023-12-28T06:01:43;2.90;;;0.93;;
77888;SDS011;67082;41.704;44.768;2023-12-28T06:04:11;3.00;;;1.00;;
77888;SDS011;67082;41.704;44.768;2023-12-28T06:06:40;2.50;;;1.00;;
77888;SDS011;67082;41.704;44.768;2023-12-28T06:09:08;2.90;;;1.23;;
77888;SDS011;67082;41.704;44.768;2023-12-28T06:11:37;1.88;;;0.82;;
77888;SDS011;67082;41.704;44.768;2023-12-28T06:14:05;5.43;;;1.00;;
77888;SDS011;67082;41.704;44.768;2023-12-28T06:16:33;2.92;;;1.00;;
77888;SDS011;67082;41.704;44.768;2023-12-28T06:19:02;4.22;;;1.17;;
77888;SDS011;67082;41.704;44.768;2023-12-28T06:21:30;2.47;;;1.00;;
77888;SDS011;67082;41.704;44.768;2023-12-28T06:23:59;3.10;;;1.40;;
77888;SDS011;67082;41.704;44.768;2023-12-28T06:26:27;3.20;;;1.65;;
77888;SDS011;67082;41.704;44.768;2023-12-28T06:28:55;4.40;;;1.15;;
77888;SDS011;67082;41.704;44.768;2023-12-28T06:31:23;2.97;;;1.42;;
77888;SDS011;67082;41.704;44.768;2023-12-28T06:33:52;3.92;;;1.10;;
77888;SDS011;67082;41.704;44.768;2023-12-28T06:36:20;2.80;;;1.13;;
77888;SDS011;67082;41.704;44.768;2023-12-28T06:38:48;4.28;;;1.17;;
77888;SDS011;67082;41.704;44.768;2023-12-28T06:41:17;2.28;;;1.00;;
77888;SDS011;67082;41.704;44.768;2023-12-28T06:43:45;4.72;;;1.30;;
77888;SDS011;67082;41.704;44.768;2023-12-28T06:46:13;3.17;;;0.93;;
77888;SDS011;67082;41.704;44.768;2023-12-28T06:48:41;2.50;;;1.15;;
77888;SDS011;67082;41.704;44.768;2023-12-28T06:51:18;4.90;;;1.27;;
77888;SDS011;67082;41.704;44.768;2023-12-28T06:53:48;11.27;;;2.47;;
77888;SDS011;67082;41.704;44.768;2023-12-28T06:56:17;4.22;;;0.90;;
77888;SDS011;67082;41.704;44.768;2023-12-28T06:58:46;7.38;;;1.10;;
77888;SDS011;67082;41.704;44.768;2023-12-28T07:01:14;9.68;;;1.30;;
77888;SDS011;67082;41.704;44.768;2023-12-28T07:03:42;2.92;;;0.90;;
77888;SDS011;67082;41.704;44.768;2023-12-28T07:06:10;6.03;;;1.27;;
77888;SDS011;67082;41.704;44.768;2023-12-28T07:08:38;13.25;;;1.38;;
77888;SDS011;67082;41.704;44.768;2023-12-28T07:11:09;7.70;;;1.05;;
77888;SDS011;67082;41.704;44.768;2023-12-28T07:13:38;7.03;;;1.00;;
77888;SDS011;67082;41.704;44.768;2023-12-28T07:16:07;3.22;;;1.23;;
77888;SDS011;67082;41.704;44.768;2023-12-28T07:18:35;7.20;;;1.35;;
77888;SDS011;67082;41.704;44.768;2023-12-28T07:21:04;14.27;;;1.30;;
77888;SDS011;67082;41.704;44.768;2023-12-28T07:23:33;5.72;;;1.67;;
77888;SDS011;67082;41.704;44.768;2023-12-28T07:26:02;3.97;;;1.30;;
77888;SDS011;67082;41.704;44.768;2023-12-28T07:28:31;5.97;;;1.25;;
77888;SDS011;67082;41.704;44.768;2023-12-28T07:30:59;3.90;;;1.10;;
77888;SDS011;67082;41.704;44.768;2023-12-28T07:33:27;10.40;;;1.23;;
77888;SDS011;67082;41.704;44.768;2023-12-28T07:35:56;2.95;;;1.08;;
77888;SDS011;67082;41.704;44.768;2023-12-28T07:38:27;5.55;;;1.17;;
77888;SDS011;67082;41.704;44.768;2023-12-28T07:40:55;3.50;;;1.15;;
77888;SDS011;67082;41.704;44.768;2023-12-28T07:43:23;3.63;;;1.20;;
77888;SDS011;67082;41.704;44.768;2023-12-28T07:45:52;2.92;;;1.40;;
77888;SDS011;67082;41.704;44.768;2023-12-28T07:48:20;11.63;;;1.42;;
77888;SDS011;67082;41.704;44.768;2023-12-28T07:50:48;3.63;;;1.20;;
77888;SDS011;67082;41.704;44.768;2023-12-28T07:53:18;4.13;;;1.30;;
77888;SDS011;67082;41.704;44.768;2023-12-28T07:55:47;5.20;;;1.30;;
77888;SDS011;67082;41.704;44.768;2023-12-28T07:58:15;6.80;;;1.42;;
77888;SDS011;67082;41.704;44.768;2023-12-28T08:00:43;4.30;;;1.17;;
77888;SDS011;67082;41.704;44.768;2023-12-28T08:03:11;2.97;;;1.10;;
77888;SDS011;67082;41.704;44.768;2023-12-28T08:05:43;3.90;;;1.10;;
77888;SDS011;67082;41.704;44.768;2023-12-28T08:08:11;3.25;;;1.00;;
77888;SDS011;67082;41.704;44.768;2023-12-28T08:10:40;2.25;;;1.05;;
77888;SDS011;67082;41.704;44.768;2023-12-28T08:13:08;4.43;;;1.50;;
77888;SDS011;67082;41.704;44.768;2023-12-28T08:15:36;2.97;;;1.00;;
77888;SDS011;67082;41.704;44.768;2023-12-28T08:18:04;4.47;;;1.10;;
77888;SDS011;67082;41.704;44.768;2023-12-28T08:20:33;2.67;;;0.82;;
77888;SDS011;67082;41.704;44.768;2023-12-28T08:23:01;2.38;;;0.98;;
77888;SDS011;67082;41.704;44.768;2023-12-28T08:25:44;3.75;;;1.20;;
77888;SDS011;67082;41.704;44.768;2023-12-28T08:28:13;4.97;;;0.93;;
77888;SDS011;67082;41.704;44.768;2023-12-28T08:30:41;6.80;;;1.15;;
77888;SDS011;67082;41.704;44.768;2023-12-28T08:33:10;2.33;;;0.80;;
77888;SDS011;67082;41.704;44.768;2023-12-28T08:35:38;2.10;;;1.00;;
77888;SDS011;67082;41.704;44.768;2023-12-28T08:38:07;4.10;;;1.00;;
77888;SDS011;67082;41.704;44.768;2023-12-28T08:40:35;3.08;;;0.85;;
77888;SDS011;67082;41.704;44.768;2023-12-28T08:43:04;1.42;;;0.70;;
77888;SDS011;67082;41.704;44.768;2023-12-28T08:45:32;3.38;;;0.70;;
77888;SDS011;67082;41.704;44.768;2023-12-28T08:48:02;3.67;;;0.70;;
77888;SDS011;67082;41.704;44.768;2023-12-28T08:50:32;3.63;;;1.23;;
77888;SDS011;67082;41.704;44.768;2023-12-28T08:53:00;3.88;;;1.10;;
77888;SDS011;67082;41.704;44.768;2023-12-28T08:55:28;5.10;;;0.90;;
77888;SDS011;67082;41.704;44.768;2023-12-28T08:57:56;3.30;;;0.70;;
77888;SDS011;67082;41.704;44.768;2023-12-28T09:00:25;7.15;;;0.98;;
77888;SDS011;67082;41.704;44.768;2023-12-28T09:02:53;6.88;;;2.53;;
77888;SDS011;67082;41.704;44.768;2023-12-28T09:05:21;7.22;;;1.52;;
77888;SDS011;67082;41.704;44.768;2023-12-28T09:07:50;8.18;;;1.15;;
77888;SDS011;67082;41.704;44.768;2023-12-28T09:10:18;5.15;;;0.95;;
77888;SDS011;67082;41.704;44.768;2023-12-28T09:12:46;4.45;;;1.33;;
77888;SDS011;67082;41.704;44.768;2023-12-28T09:15:14;8.60;;;1.30;;
77888;SDS011;67082;41.704;44.768;2023-12-28T09:17:43;3.20;;;0.65;;
77888;SDS011;67082;41.704;44.768;2023-12-28T09:20:12;5.78;;;0.60;;
77888;SDS011;67082;41.704;44.768;2023-12-28T09:22:40;5.53;;;0.88;;
77888;SDS011;67082;41.704;44.768;2023-12-28T09:25:08;2.95;;;0.70;;
77888;SDS011;67082;41.704;44.768;2023-12-28T09:27:37;3.83;;;0.68;;
77888;SDS011;67082;41.704;44.768;2023-12-28T09:30:05;4.88;;;0.70;;
77888;SDS011;67082;41.704;44.768;2023-12-28T09:32:34;1.45;;;0.70;;
77888;SDS011;67082;41.704;44.768;2023-12-28T09:35:02;4.90;;;0.90;;
77888;SDS011;67082;41.704;44.768;2023-12-28T09:37:31;2.30;;;0.70;;
77888;SDS011;67082;41.704;44.768;2023-12-28T09:39:59;2.75;;;0.70;;
77888;SDS011;67082;41.704;44.768;2023-12-28T09:42:32;2.85;;;0.68;;
77888;SDS011;67082;41.704;44.768;2023-12-28T09:45:23;7.05;;;1.00;;
77888;SDS011;67082;41.704;44.768;2023-12-28T09:47:52;6.47;;;0.70;;
77888;SDS011;67082;41.704;44.768;2023-12-28T09:50:20;5.55;;;0.80;;
77888;SDS011;67082;41.704;44.768;2023-12-28T09:52:52;2.22;;;0.80;;
77888;SDS011;67082;41.704;44.768;2023-12-28T09:55:20;3.22;;;0.82;;
77888;SDS011;67082;41.704;44.768;2023-12-28T09:57:49;4.88;;;1.00;;
77888;SDS011;67082;41.704;44.768;2023-12-28T10:00:18;9.07;;;0.98;;
77888;SDS011;67082;41.704;44.768;2023-12-28T10:02:47;20.65;;;1.40;;
77888;SDS011;67082;41.704;44.768;2023-12-28T10:05:15;16.10;;;1.73;;
77888;SDS011;67082;41.704;44.768;2023-12-28T10:07:44;6.25;;;1.33;;
77888;SDS011;67082;41.704;44.768;2023-12-28T10:10:17;4.47;;;1.00;;
77888;SDS011;67082;41.704;44.768;2023-12-28T10:12:47;3.45;;;0.90;;
77888;SDS011;67082;41.704;44.768;2023-12-28T10:15:15;8.35;;;1.10;;
77888;SDS011;67082;41.704;44.768;2023-12-28T10:17:45;9.60;;;0.90;;
77888;SDS011;67082;41.704;44.768;2023-12-28T10:20:13;6.15;;;0.90;;
77888;SDS011;67082;41.704;44.768;2023-12-28T10:22:42;2.70;;;0.63;;
77888;SDS011;67082;41.704;44.768;2023-12-28T10:25:12;2.92;;;0.73;;
77888;SDS011;67082;41.704;44.768;2023-12-28T10:27:40;2.55;;;0.85;;
77888;SDS011;67082;41.704;44.768;2023-12-28T10:30:11;3.30;;;0.80;;
77888;SDS011;67082;41.704;44.768;2023-12-28T10:32:40;11.02;;;1.13;;
77888;SDS011;67082;41.704;44.768;2023-12-28T10:35:09;4.53;;;1.17;;
77888;SDS011;67082;41.704;44.768;2023-12-28T10:37:41;8.13;;;1.25;;
77888;SDS011;67082;41.704;44.768;2023-12-28T10:40:12;10.95;;;1.30;;
77888;SDS011;67082;41.704;44.768;2023-12-28T10:45:24;10.63;;;1.10;;
77888;SDS011;67082;41.704;44.768;2023-12-28T10:48:09;16.48;;;1.52;;
77888;SDS011;67082;41.704;44.768;2023-12-28T10:50:42;13.73;;;1.15;;
77888;SDS011;67082;41.704;44.768;2023-12-28T11:02:07;6.38;;;0.90;;
77888;SDS011;67082;41.704;44.768;2023-12-28T11:04:49;5.35;;;0.85;;
77888;SDS011;67082;41.704;44.768;2023-12-28T11:07:18;18.90;;;1.25;;
77888;SDS011;67082;41.704;44.768;2023-12-28T11:09:48;4.95;;;0.90;;
77888;SDS011;67082;41.704;44.768;2023-12-28T11:12:18;3.70;;;1.10;;
77888;SDS011;67082;41.704;44.768;2023-12-28T11:14:48;4.30;;;0.82;;
77888;SDS011;67082;41.704;44.768;2023-12-28T11:17:18;3.30;;;1.10;;
77888;SDS011;67082;41.704;44.768;2023-12-28T11:19:48;5.10;;;0.93;;
77888;SDS011;67082;41.704;44.768;2023-12-28T11:22:17;4.53;;;1.00;;
77888;SDS011;67082;41.704;44.768;2023-12-28T11:24:45;3.85;;;1.20;;
77888;SDS011;67082;41.704;44.768;2023-12-28T11:27:14;2.47;;;1.00;;
77888;SDS011;67082;41.704;44.768;2023-12-28T11:29:44;5.43;;;0.90;;
77888;SDS011;67082;41.704;44.768;2023-12-28T11:32:15;4.70;;;1.10;;
77888;SDS011;67082;41.704;44.768;2023-12-28T11:34:44;2.10;;;0.95;;
77888;SDS011;67082;41.704;44.768;2023-12-28T11:37:13;6.18;;;1.00;;
77888;SDS011;67082;41.704;44.768;2023-12-28T11:39:46;4.57;;;0.90;;
77888;SDS011;67082;41.704;44.768;2023-12-28T11:42:20;2.53;;;0.85;;
77888;SDS011;67082;41.704;44.768;2023-12-28T11:44:54;4.47;;;1.23;;
77888;SDS011;67082;41.704;44.768;2023-12-28T11:47:24;9.55;;;1.17;;
77888;SDS011;67082;41.704;44.768;2023-12-28T11:49:55;2.25;;;0.90;;
77888;SDS011;67082;41.704;44.768;2023-12-28T11:52:34;3.13;;;0.80;;
77888;SDS011;67082;41.704;44.768;2023-12-28T11:55:03;4.43;;;0.77;;
77888;SDS011;67082;41.704;44.768;2023-12-28T11:57:32;2.60;;;0.90;;
77888;SDS011;67082;41.704;44.768;2023-12-28T12:00:01;5.05;;;0.80;;
77888;SDS011;67082;41.704;44.768;2023-12-28T12:02:33;1.10;;;0.60;;
77888;SDS011;67082;41.704;44.768;2023-12-28T12:05:02;2.78;;;0.70;;
77888;SDS011;67082;41.704;44.768;2023-12-28T12:07:30;2.28;;;0.80;;
77888;SDS011;67082;41.704;44.768;2023-12-28T12:09:59;2.22;;;0.80;;
77888;SDS011;67082;41.704;44.768;2023-12-28T12:12:30;3.08;;;0.90;;
77888;SDS011;67082;41.704;44.768;2023-12-28T12:14:59;2.33;;;0.80;;
77888;SDS011;67082;41.704;44.768;2023-12-28T12:17:29;3.33;;;0.90;;
77888;SDS011;67082;41.704;44.768;2023-12-28T12:19:58;3.67;;;1.05;;
77888;SDS011;67082;41.704;44.768;2023-12-28T12:22:26;4.60;;;0.90;;
77888;SDS011;67082;41.704;44.768;2023-12-28T12:24:57;3.47;;;1.33;;
77888;SDS011;67082;41.704;44.768;2023-12-28T12:27:32;2.28;;;1.08;;
77888;SDS011;67082;41.704;44.768;2023-12-28T12:30:00;7.38;;;1.35;;
77888;SDS011;67082;41.704;44.768;2023-12-28T12:32:31;1.88;;;0.80;;
77888;SDS011;67082;41.704;44.768;2023-12-28T12:35:00;3.42;;;1.00;;
77888;SDS011;67082;41.704;44.768;2023-12-28T12:37:30;4.45;;;1.02;;
77888;SDS011;67082;41.704;44.768;2023-12-28T12:39:58;7.22;;;1.00;;
77888;SDS011;67082;41.704;44.768;2023-12-28T12:42:30;3.95;;;0.95;;
77888;SDS011;67082;41.704;44.768;2023-12-28T12:44:58;2.08;;;1.15;;
77888;SDS011;67082;41.704;44.768;2023-12-28T12:47:31;3.00;;;1.00;;
77888;SDS011;67082;41.704;44.768;2023-12-28T12:50:02;6.28;;;1.40;;
77888;SDS011;67082;41.704;44.768;2023-12-28T12:52:32;2.05;;;0.90;;
77888;SDS011;67082;41.704;44.768;2023-12-28T12:55:00;2.58;;;1.08;;
77888;SDS011;67082;41.704;44.768;2023-12-28T12:57:29;2.60;;;1.00;;
77888;SDS011;67082;41.704;44.768;2023-12-28T13:00:00;5.85;;;1.15;;
77888;SDS011;67082;41.704;44.768;2023-12-28T13:02:30;4.80;;;1.30;;
77888;SDS011;67082;41.704;44.768;2023-12-28T13:05:01;2.72;;;0.82;;
77888;SDS011;67082;41.704;44.768;2023-12-28T13:07:31;2.33;;;0.90;;
77888;SDS011;67082;41.704;44.768;2023-12-28T13:10:00;5.90;;;1.20;;
77888;SDS011;67082;41.704;44.768;2023-12-28T13:12:29;4.68;;;1.23;;
77888;SDS011;67082;41.704;44.768;2023-12-28T13:14:57;10.23;;;2.25;;
77888;SDS011;67082;41.704;44.768;2023-12-28T13:17:27;2.58;;;1.10;;
77888;SDS011;67082;41.704;44.768;2023-12-28T13:19:55;5.00;;;1.30;;
77888;SDS011;67082;41.704;44.768;2023-12-28T13:22:23;4.03;;;1.00;;
77888;SDS011;67082;41.704;44.768;2023-12-28T13:24:51;4.32;;;1.00;;
77888;SDS011;67082;41.704;44.768;2023-12-28T13:27:20;2.78;;;0.90;;
77888;SDS011;67082;41.704;44.768;2023-12-28T13:29:48;3.38;;;1.15;;
77888;SDS011;67082;41.704;44.768;2023-12-28T13:32:16;5.97;;;1.13;;
77888;SDS011;67082;41.704;44.768;2023-12-28T13:34:45;2.05;;;0.93;;
77888;SDS011;67082;41.704;44.768;2023-12-28T13:37:13;6.18;;;1.42;;
77888;SDS011;67082;41.704;44.768;2023-12-28T13:39:42;3.83;;;1.50;;
77888;SDS011;67082;41.704;44.768;2023-12-28T13:42:10;2.95;;;1.10;;
77888;SDS011;67082;41.704;44.768;2023-12-28T13:44:38;2.90;;;1.10;;
77888;SDS011;67082;41.704;44.768;2023-12-28T13:47:06;3.45;;;1.20;;
77888;SDS011;67082;41.704;44.768;2023-12-28T13:49:35;3.08;;;1.20;;
77888;SDS011;67082;41.704;44.768;2023-12-28T13:52:04;4.82;;;1.05;;
77888;SDS011;67082;41.704;44.768;2023-12-28T13:54:33;4.07;;;1.30;;
77888;SDS011;67082;41.704;44.768;2023-12-28T13:57:01;2.80;;;1.20;;
77888;SDS011;67082;41.704;44.768;2023-12-28T13:59:30;3.70;;;1.20;;
77888;SDS011;67082;41.704;44.768;2023-12-28T14:01:58;3.50;;;1.30;;
77888;SDS011;67082;41.704;44.768;2023-12-28T14:04:27;4.38;;;1.30;;
77888;SDS011;67082;41.704;44.768;2023-12-28T14:06:57;4.82;;;1.65;;
77888;SDS011;67082;41.704;44.768;2023-12-28T14:09:25;4.38;;;1.20;;
77888;SDS011;67082;41.704;44.768;2023-12-28T14:11:53;3.13;;;1.20;;
77888;SDS011;67082;41.704;44.768;2023-12-28T14:14:22;4.88;;;1.75;;
77888;SDS011;67082;41.704;44.768;2023-12-28T14:16:51;4.13;;;1.30;;
77888;SDS011;67082;41.704;44.768;2023-12-28T14:19:19;4.65;;;1.50;;
77888;SDS011;67082;41.704;44.768;2023-12-28T14:21:48;6.63;;;1.55;;
77888;SDS011;67082;41.704;44.768;2023-12-28T14:24:16;5.18;;;1.67;;
77888;SDS011;67082;41.704;44.768;2023-12-28T14:26:46;7.25;;;2.00;;
77888;SDS011;67082;41.704;44.768;2023-12-28T14:29:18;5.13;;;1.73;;
77888;SDS011;67082;41.704;44.768;2023-12-28T14:31:47;3.72;;;1.40;;
77888;SDS011;67082;41.704;44.768;2023-12-28T14:34:16;7.40;;;1.90;;
77888;SDS011;67082;41.704;44.768;2023-12-28T14:36:45;5.18;;;1.73;;
77888;SDS011;67082;41.704;44.768;2023-12-28T14:39:18;8.55;;;1.55;;
77888;SDS011;67082;41.704;44.768;2023-12-28T14:41:47;3.53;;;1.60;;
77888;SDS011;67082;41.704;44.768;2023-12-28T14:44:16;6.00;;;1.80;;
77888;SDS011;67082;41.704;44.768;2023-12-28T14:46:44;9.07;;;2.67;;
77888;SDS011;67082;41.704;44.768;2023-12-28T14:49:13;4.90;;;1.75;;
77888;SDS011;67082;41.704;44.768;2023-12-28T14:51:41;5.43;;;1.67;;
77888;SDS011;67082;41.704;44.768;2023-12-28T14:54:09;6.50;;;1.63;;
77888;SDS011;67082;41.704;44.768;2023-12-28T14:56:38;7.10;;;1.92;;
77888;SDS011;67082;41.704;44.768;2023-12-28T14:59:18;4.40;;;1.70;;